createdAt,value
2023-03-04T00:00:35.148Z,5.08
2023-03-04T00:03:03.067Z,5.08
2023-03-04T00:05:31.370Z,4.92
2023-03-04T00:07:59.265Z,4.71
2023-03-04T00:10:27.237Z,4.69
2023-03-04T00:12:55.158Z,4.79
2023-03-04T00:15:24.470Z,4.89
2023-03-04T00:17:52.376Z,4.93
2023-03-04T00:20:20.400Z,4.95
2023-03-04T00:22:48.346Z,4.95
2023-03-04T00:25:16.494Z,4.92
2023-03-04T00:27:44.415Z,4.87
2023-03-04T00:30:13.036Z,4.88
2023-03-04T00:32:42.345Z,4.78
2023-03-04T00:35:10.722Z,4.85
2023-03-04T00:37:38.630Z,4.95
2023-03-04T00:40:07.695Z,5.00
2023-03-04T00:42:35.584Z,4.99
2023-03-04T00:45:03.555Z,5.01
2023-03-04T00:47:31.482Z,5.01
2023-03-04T00:50:00.796Z,5.06
2023-03-04T00:52:28.964Z,5.07
2023-03-04T00:54:56.913Z,4.97
2023-03-04T00:57:24.790Z,4.93
2023-03-04T00:59:52.702Z,4.98
2023-03-04T01:02:20.624Z,5.03
2023-03-04T01:04:48.561Z,5.04
2023-03-04T01:07:18.204Z,5.06
2023-03-04T01:09:46.180Z,5.07
2023-03-04T01:12:14.141Z,5.04
2023-03-04T01:14:42.033Z,5.07
2023-03-04T01:17:09.984Z,5.02
2023-03-04T01:19:37.992Z,5.03
2023-03-04T01:22:05.907Z,5.07
2023-03-04T01:24:35.232Z,5.07
2023-03-04T01:27:03.257Z,5.06
2023-03-04T01:29:31.175Z,5.09
2023-03-04T01:31:59.079Z,5.04
2023-03-04T01:34:27.177Z,5.08
2023-03-04T01:36:55.088Z,4.90
2023-03-04T01:39:23.870Z,4.86
2023-03-04T01:41:54.019Z,4.85
2023-03-04T01:44:22.020Z,4.87
2023-03-04T01:46:54.057Z,4.93
2023-03-04T01:49:22.557Z,5.01
2023-03-04T01:51:53.466Z,5.02
2023-03-04T01:54:23.013Z,5.06
2023-03-04T01:56:54.328Z,5.10
2023-03-04T01:59:23.993Z,5.10
2023-03-04T02:01:54.555Z,5.09
2023-03-04T02:04:24.869Z,5.12
2023-03-04T02:06:54.164Z,5.13
2023-03-04T02:09:22.674Z,5.12
2023-03-04T02:11:51.838Z,5.12
2023-03-04T02:14:22.197Z,5.10
2023-03-04T02:16:50.834Z,5.13
2023-03-04T02:19:27.864Z,5.13
2023-03-04T02:21:57.958Z,5.15
2023-03-04T02:24:31.792Z,5.16
2023-03-04T02:27:01.109Z,5.15
2023-03-04T02:29:29.968Z,5.13
2023-03-04T02:31:58.137Z,5.13
2023-03-04T02:34:30.219Z,5.16
2023-03-04T02:36:58.848Z,5.16
2023-03-04T02:39:33.006Z,5.18
2023-03-04T02:42:03.842Z,5.08
2023-03-04T02:44:35.715Z,4.66
2023-03-04T02:47:05.116Z,4.51
2023-03-04T02:49:35.489Z,4.72
2023-03-04T02:52:07.086Z,4.93
2023-03-04T02:54:35.105Z,5.03
2023-03-04T02:57:07.802Z,5.07
2023-03-04T02:59:38.524Z,5.09
2023-03-04T03:02:08.109Z,5.10
2023-03-04T03:04:37.891Z,5.14
2023-03-04T03:07:09.823Z,5.11
2023-03-04T03:09:38.056Z,5.10
2023-03-04T03:12:07.820Z,5.06
2023-03-04T03:14:35.930Z,4.98
2023-03-04T03:17:05.574Z,4.81
2023-03-04T03:19:33.570Z,4.81
2023-03-04T03:22:05.022Z,4.93
2023-03-04T03:24:33.447Z,4.98
2023-03-04T03:27:01.349Z,5.04
2023-03-04T03:29:30.854Z,5.06
2023-03-04T03:31:59.905Z,5.01
2023-03-04T03:34:27.906Z,4.94
2023-03-04T03:36:55.830Z,4.91
2023-03-04T03:39:23.757Z,4.92
2023-03-04T03:41:51.736Z,4.98
2023-03-04T03:44:19.642Z,4.95
2023-03-04T03:46:48.968Z,4.98
2023-03-04T03:49:17.238Z,4.98
2023-03-04T03:51:45.159Z,5.02
2023-03-04T03:54:13.152Z,5.02
2023-03-04T03:56:41.082Z,4.71
2023-03-04T03:59:09.200Z,4.49
2023-03-04T04:01:37.311Z,4.64
2023-03-04T04:04:06.904Z,4.74
2023-03-04T04:06:34.853Z,4.83
2023-03-04T04:09:02.763Z,4.90
2023-03-04T04:11:30.682Z,4.96
2023-03-04T04:13:58.659Z,4.99
2023-03-04T04:16:26.601Z,5.03
2023-03-04T04:18:54.560Z,5.07
2023-03-04T04:21:23.961Z,5.07
2023-03-04T04:23:51.927Z,5.07
2023-03-04T04:26:19.820Z,4.97
2023-03-04T04:28:47.710Z,4.65
2023-03-04T04:31:15.664Z,4.63
2023-03-04T04:33:43.606Z,4.77
2023-03-04T04:36:15.509Z,4.84
2023-03-04T04:38:45.820Z,4.97
2023-03-04T04:41:20.916Z,4.95
2023-03-04T04:43:49.240Z,5.01
2023-03-04T04:46:17.525Z,5.03
2023-03-04T04:48:45.832Z,5.06
2023-03-04T04:51:14.685Z,5.08
2023-03-04T04:53:44.796Z,5.06
2023-03-04T04:56:13.850Z,5.10
2023-03-04T04:58:42.448Z,5.09
2023-03-04T05:01:11.031Z,5.00
2023-03-04T05:03:40.155Z,4.97
2023-03-04T05:06:11.163Z,4.88
2023-03-04T05:08:39.826Z,4.89
2023-03-04T05:11:10.455Z,4.93
2023-03-04T05:13:38.575Z,4.95
2023-03-04T05:16:07.400Z,5.02
2023-03-04T05:18:35.577Z,5.03
2023-03-04T05:21:05.371Z,5.09
2023-03-04T05:23:35.296Z,5.15
2023-03-04T05:26:04.021Z,5.15
2023-03-04T05:28:33.518Z,5.15
2023-03-04T05:31:01.894Z,5.11
2023-03-04T05:33:30.436Z,5.08
2023-03-04T05:35:58.623Z,5.11
2023-03-04T05:38:27.006Z,5.12
2023-03-04T05:40:59.390Z,5.12
2023-03-04T05:43:27.964Z,5.12
2023-03-04T05:45:57.442Z,5.18
2023-03-04T05:48:25.805Z,5.12
2023-03-04T05:50:57.356Z,5.10
2023-03-04T05:53:25.467Z,5.00
2023-03-04T05:55:53.492Z,5.06
2023-03-04T05:58:22.091Z,5.15
2023-03-04T06:00:50.227Z,5.14
2023-03-04T06:03:22.030Z,5.12
2023-03-04T06:05:49.985Z,5.08
2023-03-04T06:08:17.904Z,5.11
2023-03-04T06:10:45.833Z,5.06
2023-03-04T06:13:14.563Z,5.11
2023-03-04T06:15:42.516Z,5.20
2023-03-04T06:18:10.585Z,5.22
2023-03-04T06:20:39.911Z,5.21
2023-03-04T06:23:07.827Z,5.11
2023-03-04T06:25:35.780Z,5.14
2023-03-04T06:28:03.730Z,5.13
2023-03-04T06:30:31.723Z,5.00
2023-03-04T06:32:59.729Z,4.93
2023-03-04T06:35:28.590Z,4.90
2023-03-04T06:37:57.894Z,4.80
2023-03-04T06:40:26.034Z,4.80
2023-03-04T06:42:53.972Z,4.84
2023-03-04T06:45:21.961Z,4.94
2023-03-04T06:47:49.876Z,4.93
2023-03-04T06:50:17.936Z,4.90
2023-03-04T06:52:45.879Z,4.90
2023-03-04T06:55:15.155Z,4.91
2023-03-04T06:57:43.069Z,4.94
2023-03-04T07:00:12.245Z,4.90
2023-03-04T07:02:40.115Z,4.89
2023-03-04T07:05:08.797Z,4.99
2023-03-04T07:07:36.806Z,5.08
2023-03-04T07:10:05.630Z,5.18
2023-03-04T07:12:34.986Z,5.24
2023-03-04T07:15:02.971Z,5.25
2023-03-04T07:17:30.977Z,5.17
2023-03-04T07:19:58.916Z,5.16
2023-03-04T07:22:26.920Z,5.17
2023-03-04T07:24:54.873Z,5.19
2023-03-04T07:27:22.777Z,5.30
2023-03-04T07:29:52.033Z,5.29
2023-03-04T07:32:20.053Z,5.40
2023-03-04T07:34:48.008Z,5.61
2023-03-04T07:37:15.972Z,5.72
2023-03-04T07:39:43.889Z,5.76
2023-03-04T07:42:11.949Z,5.84
2023-03-04T07:44:42.556Z,5.87
2023-03-04T07:47:11.843Z,5.85
2023-03-04T07:49:39.745Z,5.86
2023-03-04T07:52:08.858Z,5.87
2023-03-04T07:54:36.806Z,5.85
2023-03-04T07:57:04.885Z,5.84
2023-03-04T07:59:32.934Z,5.82
2023-03-04T08:02:00.846Z,5.80
2023-03-04T08:04:30.221Z,5.81
2023-03-04T08:06:58.199Z,5.89
2023-03-04T08:09:26.199Z,5.81
2023-03-04T08:11:54.168Z,5.84
2023-03-04T08:14:22.211Z,5.93
2023-03-04T08:16:50.096Z,5.98
2023-03-04T08:19:18.044Z,6.03
2023-03-04T08:21:47.377Z,6.03
2023-03-04T08:24:15.359Z,6.09
2023-03-04T08:26:45.569Z,6.17
2023-03-04T08:29:16.136Z,6.25
2023-03-04T08:31:48.562Z,6.27
2023-03-04T08:34:17.678Z,6.26
2023-03-04T08:36:46.982Z,6.22
2023-03-04T08:39:17.648Z,6.21
2023-03-04T08:41:46.638Z,6.21
2023-03-04T08:44:14.840Z,6.24
2023-03-04T08:46:43.846Z,6.32
2023-03-04T08:49:12.956Z,6.35
2023-03-04T08:51:41.173Z,6.39
2023-03-04T08:54:10.465Z,6.43
2023-03-04T08:56:38.391Z,6.52
2023-03-04T08:59:06.288Z,6.56
2023-03-04T09:01:34.348Z,6.37
2023-03-04T09:04:02.252Z,6.37
2023-03-04T09:06:30.195Z,6.48
2023-03-04T09:08:58.148Z,6.55
2023-03-04T09:11:27.396Z,6.58
2023-03-04T09:13:55.333Z,6.60
2023-03-04T09:16:23.595Z,6.48
2023-03-04T09:18:51.572Z,6.53
2023-03-04T09:21:19.452Z,6.66
2023-03-04T09:23:47.409Z,6.73
2023-03-04T09:26:17.347Z,6.82
2023-03-04T09:28:46.609Z,6.86
2023-03-04T09:31:15.657Z,6.93
2023-03-04T09:33:43.603Z,6.95
2023-03-04T09:36:12.822Z,7.01
2023-03-04T09:38:41.137Z,7.00
2023-03-04T09:41:11.567Z,6.98
2023-03-04T09:43:41.110Z,6.98
2023-03-04T09:46:16.011Z,7.01
2023-03-04T09:48:46.409Z,7.03
2023-03-04T09:51:22.351Z,7.04
2023-03-04T09:54:00.049Z,7.06
2023-03-04T09:56:29.261Z,7.06
2023-03-04T09:59:05.006Z,7.04
2023-03-04T10:01:38.023Z,6.97
2023-03-04T10:04:14.293Z,6.66
2023-03-04T10:06:43.391Z,6.71
2023-03-04T10:09:15.354Z,6.84
2023-03-04T10:11:46.628Z,6.83
2023-03-04T10:14:39.476Z,6.86
2023-03-04T10:17:15.489Z,6.85
2023-03-04T10:19:54.185Z,6.80
2023-03-04T10:22:30.022Z,6.92
2023-03-04T10:25:00.403Z,7.08
2023-03-04T10:27:30.261Z,7.20
2023-03-04T10:30:01.696Z,7.27
2023-03-04T10:32:31.000Z,7.32
2023-03-04T10:34:59.066Z,7.39
2023-03-04T10:37:45.124Z,7.39
2023-03-04T10:40:20.982Z,7.21
2023-03-04T10:42:50.976Z,7.12
2023-03-04T10:45:24.610Z,7.07
2023-03-04T10:47:58.787Z,7.15
2023-03-04T10:50:29.218Z,7.25
2023-03-04T10:52:58.130Z,7.18
2023-03-04T10:55:28.928Z,6.98
2023-03-04T10:58:03.080Z,7.12
2023-03-04T11:00:33.411Z,7.16
2023-03-04T11:03:29.429Z,7.23
2023-03-04T11:06:11.822Z,7.28
2023-03-04T11:08:41.416Z,7.36
2023-03-04T11:11:23.784Z,7.33
2023-03-04T11:13:54.400Z,7.31
2023-03-04T11:16:28.545Z,7.30
2023-03-04T11:19:01.643Z,7.38
2023-03-04T11:21:33.238Z,7.49
2023-03-04T11:24:03.023Z,7.53
2023-03-04T11:26:35.007Z,7.54
2023-03-04T11:29:09.534Z,7.62
2023-03-04T11:31:41.649Z,7.65
2023-03-04T11:34:19.125Z,7.71
2023-03-04T11:36:57.221Z,7.73
2023-03-04T11:39:31.410Z,7.82
2023-03-04T11:42:03.971Z,7.75
2023-03-04T11:44:32.175Z,7.64
2023-03-04T11:47:36.169Z,7.47
2023-03-04T11:50:36.233Z,7.40
2023-03-04T11:53:25.041Z,7.55
2023-03-04T11:56:04.066Z,7.72
2023-03-04T11:59:05.800Z,7.83
2023-03-04T12:01:43.298Z,7.93
2023-03-04T12:04:30.821Z,8.04
2023-03-04T12:07:13.626Z,8.09
2023-03-04T12:09:49.131Z,8.13
2023-03-04T12:12:34.286Z,8.13
2023-03-04T12:15:14.529Z,8.02
2023-03-04T12:18:01.348Z,7.89
2023-03-04T12:20:41.858Z,8.13
2023-03-04T12:23:26.005Z,8.41
2023-03-04T12:26:01.752Z,8.67
2023-03-04T12:28:52.296Z,8.76
2023-03-04T12:31:34.393Z,8.72
2023-03-04T12:34:20.987Z,8.79
2023-03-04T12:36:56.103Z,8.93
2023-03-04T12:39:33.477Z,8.58
2023-03-04T12:42:11.697Z,8.70
2023-03-04T12:44:47.487Z,8.45
2023-03-04T12:47:28.768Z,8.63
2023-03-04T12:50:21.449Z,8.96
2023-03-04T12:52:59.325Z,8.94
2023-03-04T12:55:36.485Z,8.90
2023-03-04T12:58:05.165Z,8.91
2023-03-04T13:00:43.137Z,8.78
2023-03-04T13:03:16.889Z,8.83
2023-03-04T13:05:57.300Z,8.51
2023-03-04T13:08:36.629Z,8.74
2023-03-04T13:11:43.649Z,8.96
2023-03-04T13:14:31.616Z,9.25
2023-03-04T13:17:01.957Z,9.37
2023-03-04T13:19:51.438Z,9.32
2023-03-04T13:22:44.232Z,9.39
2023-03-04T13:25:41.833Z,9.30
2023-03-04T13:28:26.121Z,9.29
2023-03-04T13:31:20.128Z,9.47
2023-03-04T13:34:08.106Z,9.71
2023-03-04T13:36:55.935Z,9.95
2023-03-04T13:39:32.794Z,9.97
2023-03-04T13:42:01.434Z,9.97
2023-03-04T13:44:58.687Z,9.84
2023-03-04T13:47:48.364Z,9.91
2023-03-04T13:50:31.761Z,9.96
2023-03-04T13:53:21.187Z,10.14
2023-03-04T13:56:06.711Z,10.33
2023-03-04T13:58:35.246Z,10.59
2023-03-04T14:01:06.932Z,10.68
2023-03-04T14:03:36.670Z,10.60
2023-03-04T14:06:18.982Z,10.76
2023-03-04T14:08:47.890Z,10.66
2023-03-04T14:11:18.367Z,10.74
2023-03-04T14:13:46.553Z,10.98
2023-03-04T14:16:21.711Z,11.06
2023-03-04T14:18:59.381Z,11.28
2023-03-04T14:21:27.548Z,11.49
2023-03-04T14:24:03.794Z,11.41
2023-03-04T14:26:31.977Z,11.35
2023-03-04T14:29:02.712Z,11.45
2023-03-04T14:31:35.604Z,11.71
2023-03-04T14:34:04.430Z,11.80
2023-03-04T14:36:34.600Z,11.80
2023-03-04T14:39:06.856Z,11.92
2023-03-04T14:41:36.767Z,12.09
2023-03-04T14:44:15.246Z,12.23
2023-03-04T14:47:04.678Z,12.33
2023-03-04T14:49:36.864Z,11.77
2023-03-04T14:52:05.078Z,11.81
2023-03-04T14:54:37.042Z,11.84
2023-03-04T14:57:24.133Z,11.93
2023-03-04T14:59:53.097Z,12.03
2023-03-04T15:02:31.177Z,12.09
2023-03-04T15:05:01.298Z,11.95
2023-03-04T15:07:34.629Z,12.01
2023-03-04T15:10:04.623Z,12.04
2023-03-04T15:12:35.485Z,12.04
2023-03-04T15:15:06.417Z,12.12
2023-03-04T15:17:38.833Z,11.86
2023-03-04T15:20:26.922Z,11.41
2023-03-04T15:23:03.580Z,11.24
2023-03-04T15:25:32.139Z,11.18
2023-03-04T15:28:02.611Z,11.14
2023-03-04T15:30:33.296Z,11.08
2023-03-04T15:33:02.623Z,10.96
2023-03-04T15:35:33.049Z,10.90
2023-03-04T15:38:01.523Z,10.91
2023-03-04T15:40:32.597Z,10.90
2023-03-04T15:43:02.969Z,10.85
2023-03-04T15:45:35.997Z,10.80
2023-03-04T15:48:07.962Z,10.66
2023-03-04T15:50:38.551Z,10.59
2023-03-04T15:53:09.610Z,10.50
2023-03-04T15:55:38.196Z,10.38
2023-03-04T15:58:07.481Z,10.34
2023-03-04T16:00:35.413Z,10.30
2023-03-04T16:03:03.347Z,10.27
2023-03-04T16:05:32.991Z,10.21
2023-03-04T16:08:00.923Z,10.16
2023-03-04T16:10:31.140Z,10.10
2023-03-04T16:12:59.444Z,10.04
2023-03-04T16:15:29.273Z,10.02
2023-03-04T16:17:58.013Z,10.03
2023-03-04T16:20:30.113Z,10.12
2023-03-04T16:23:01.490Z,10.14
2023-03-04T16:25:31.065Z,10.07
2023-03-04T16:28:04.004Z,9.88
2023-03-04T16:30:32.909Z,9.85
2023-03-04T16:33:00.822Z,9.99
2023-03-04T16:35:29.689Z,10.05
2023-03-04T16:37:59.107Z,10.05
2023-03-04T16:40:29.316Z,10.01
2023-03-04T16:42:57.342Z,9.92
2023-03-04T16:45:30.214Z,9.86
2023-03-04T16:47:58.167Z,9.72
2023-03-04T16:50:30.053Z,9.39
2023-03-04T16:52:59.348Z,9.35
2023-03-04T16:55:28.751Z,9.18
2023-03-04T16:57:57.850Z,9.07
2023-03-04T17:00:28.485Z,8.95
2023-03-04T17:02:58.865Z,8.81
2023-03-04T17:05:29.251Z,8.65
2023-03-04T17:07:57.311Z,8.61
2023-03-04T17:10:27.214Z,8.42
2023-03-04T17:12:55.651Z,8.34
2023-03-04T17:15:23.598Z,8.36
2023-03-04T17:17:52.657Z,8.29
2023-03-04T17:20:20.795Z,8.27
2023-03-04T17:22:48.708Z,8.19
2023-03-04T17:25:17.339Z,8.18
2023-03-04T17:27:46.662Z,8.22
2023-03-04T17:30:15.568Z,8.22
2023-03-04T17:32:43.561Z,8.33
2023-03-04T17:35:12.497Z,8.27
2023-03-04T17:37:40.678Z,8.26
2023-03-04T17:40:14.035Z,8.13
2023-03-04T17:42:42.471Z,8.02
2023-03-04T17:45:12.767Z,7.77
2023-03-04T17:47:40.683Z,7.61
2023-03-04T17:50:10.097Z,7.69
2023-03-04T17:52:38.204Z,7.82
2023-03-04T17:55:07.030Z,7.81
2023-03-04T17:57:37.134Z,7.74
2023-03-04T18:00:06.944Z,7.71
2023-03-04T18:02:36.323Z,7.71
2023-03-04T18:05:07.416Z,7.71
2023-03-04T18:07:35.339Z,7.65
2023-03-04T18:10:03.282Z,7.65
2023-03-04T18:12:31.227Z,7.67
2023-03-04T18:14:59.206Z,7.64
2023-03-04T18:17:27.681Z,7.62
2023-03-04T18:19:57.246Z,7.62
2023-03-04T18:22:25.140Z,7.65
2023-03-04T18:24:53.062Z,7.67
2023-03-04T18:27:20.985Z,7.61
2023-03-04T18:29:48.916Z,7.57
2023-03-04T18:32:16.871Z,7.53
2023-03-04T18:34:44.785Z,7.59
2023-03-04T18:37:14.116Z,7.59
2023-03-04T18:39:42.046Z,7.63
2023-03-04T18:42:09.933Z,7.62
2023-03-04T18:44:37.849Z,7.57
2023-03-04T18:47:06.904Z,7.56
2023-03-04T18:49:35.405Z,7.54
2023-03-04T18:52:03.321Z,7.46
2023-03-04T18:54:32.579Z,7.39
2023-03-04T18:57:03.460Z,7.28
2023-03-04T18:59:37.076Z,7.27
2023-03-04T19:02:10.812Z,7.26
2023-03-04T19:04:38.739Z,7.16
2023-03-04T19:07:06.591Z,7.04
2023-03-04T19:09:35.859Z,6.94
2023-03-04T19:12:05.923Z,6.97
2023-03-04T19:14:33.979Z,6.94
2023-03-04T19:17:01.869Z,6.98
2023-03-04T19:19:29.782Z,6.97
2023-03-04T19:21:58.391Z,6.89
2023-03-04T19:24:26.445Z,6.83
2023-03-04T19:26:55.770Z,6.82
2023-03-04T19:29:23.658Z,6.62
2023-03-04T19:31:51.548Z,6.65
2023-03-04T19:34:19.444Z,6.74
2023-03-04T19:36:47.363Z,6.79
2023-03-04T19:39:15.727Z,6.82
2023-03-04T19:41:44.182Z,6.89
2023-03-04T19:44:13.484Z,6.84
2023-03-04T19:46:41.468Z,6.78
2023-03-04T19:49:10.309Z,6.80
2023-03-04T19:51:38.304Z,6.76
2023-03-04T19:54:06.271Z,6.64
2023-03-04T19:56:34.197Z,6.60
2023-03-04T19:59:02.545Z,6.54
2023-03-04T20:01:33.808Z,6.50
2023-03-04T20:04:03.863Z,6.45
2023-03-04T20:06:31.924Z,6.37
2023-03-04T20:09:01.838Z,6.32
2023-03-04T20:11:31.190Z,6.26
2023-03-04T20:13:59.754Z,6.25
2023-03-04T20:16:28.742Z,6.26
2023-03-04T20:18:58.936Z,6.24
2023-03-04T20:21:27.248Z,6.22
2023-03-04T20:23:55.319Z,6.21
2023-03-04T20:26:23.730Z,6.20
2023-03-04T20:28:51.673Z,6.20
2023-03-04T20:31:22.008Z,6.19
2023-03-04T20:33:50.646Z,6.25
2023-03-04T20:36:22.389Z,6.24
2023-03-04T20:38:55.856Z,6.23
2023-03-04T20:41:29.614Z,6.23
2023-03-04T20:43:57.560Z,6.20
2023-03-04T20:46:30.142Z,6.19
2023-03-04T20:48:59.612Z,6.19
2023-03-04T20:51:29.424Z,6.13
2023-03-04T20:53:57.408Z,6.10
2023-03-04T20:56:26.352Z,5.90
2023-03-04T20:58:56.230Z,5.85
2023-03-04T21:01:24.868Z,5.86
2023-03-04T21:03:53.200Z,5.85
2023-03-04T21:06:21.242Z,5.86
2023-03-04T21:08:50.517Z,5.84
2023-03-04T21:11:19.153Z,5.80
2023-03-04T21:13:53.914Z,5.80
2023-03-04T21:16:21.847Z,5.80
2023-03-04T21:18:49.771Z,5.77
2023-03-04T21:21:25.602Z,5.71
2023-03-04T21:23:56.426Z,5.75
2023-03-04T21:26:25.364Z,5.74
2023-03-04T21:28:54.420Z,5.67
2023-03-04T21:31:24.528Z,5.69
2023-03-04T21:33:54.209Z,5.73
2023-03-04T21:36:22.620Z,5.68
2023-03-04T21:38:51.242Z,5.69
2023-03-04T21:41:22.485Z,5.67
2023-03-04T21:43:51.016Z,5.67
2023-03-04T21:46:19.680Z,5.64
2023-03-04T21:48:48.357Z,5.61
2023-03-04T21:51:17.819Z,5.60
2023-03-04T21:53:45.827Z,5.59
2023-03-04T21:56:14.036Z,5.53
2023-03-04T21:58:43.293Z,5.44
2023-03-04T22:01:12.178Z,5.42
2023-03-04T22:03:40.565Z,5.41
2023-03-04T22:06:10.483Z,5.38
2023-03-04T22:08:40.052Z,5.37
2023-03-04T22:11:09.668Z,5.36
2023-03-04T22:13:38.338Z,5.34
2023-03-04T22:16:08.166Z,5.35
2023-03-04T22:18:38.446Z,5.39
2023-03-04T22:21:09.173Z,5.41
2023-03-04T22:23:37.336Z,5.36
2023-03-04T22:26:06.565Z,5.31
2023-03-04T22:28:35.241Z,5.28
2023-03-04T22:31:03.181Z,5.26
2023-03-04T22:33:37.167Z,5.21
2023-03-04T22:36:07.800Z,5.19
2023-03-04T22:38:36.131Z,5.18
2023-03-04T22:41:04.185Z,5.13
2023-03-04T22:43:32.221Z,5.10
2023-03-04T22:46:01.760Z,5.08
2023-03-04T22:48:29.684Z,5.05
2023-03-04T22:50:58.962Z,5.03
2023-03-04T22:53:27.069Z,5.05
2023-03-04T22:55:58.803Z,5.07
2023-03-04T22:58:26.826Z,5.11
2023-03-04T23:00:54.723Z,5.11
2023-03-04T23:03:22.668Z,5.08
2023-03-04T23:05:50.664Z,5.02
2023-03-04T23:08:19.879Z,4.98
2023-03-04T23:10:47.789Z,4.97
2023-03-04T23:13:16.150Z,4.96
2023-03-04T23:15:44.041Z,4.94
2023-03-04T23:18:11.945Z,4.90
2023-03-04T23:20:42.287Z,4.93
2023-03-04T23:23:10.356Z,4.90
2023-03-04T23:25:39.899Z,4.94
2023-03-04T23:28:07.812Z,4.94
2023-03-04T23:30:35.813Z,4.94
2023-03-04T23:33:03.786Z,4.93
2023-03-04T23:35:31.665Z,4.86
2023-03-04T23:37:59.597Z,4.83
2023-03-04T23:40:27.560Z,4.83
2023-03-04T23:42:57.094Z,4.78
2023-03-04T23:45:25.006Z,4.78
2023-03-04T23:47:52.964Z,4.81
2023-03-04T23:50:21.269Z,4.83
2023-03-04T23:52:49.760Z,4.81
2023-03-04T23:55:19.224Z,4.86
2023-03-04T23:57:48.208Z,4.86
